createdAt,value
2022-11-14T00:00:48.984Z,101578.50
2022-11-14T00:03:34.753Z,101582.06
2022-11-14T00:06:20.543Z,101573.38
2022-11-14T00:09:06.291Z,101576.78
2022-11-14T00:11:51.969Z,101572.41
2022-11-14T00:14:38.353Z,101575.91
2022-11-14T00:17:24.102Z,101574.13
2022-11-14T00:20:11.838Z,101577.66
2022-11-14T00:22:58.022Z,101575.00
2022-11-14T00:25:44.587Z,101574.06
2022-11-14T00:28:30.466Z,101580.22
2022-11-14T00:31:16.623Z,101576.94
2022-11-14T00:34:02.425Z,101587.34
2022-11-14T00:36:48.556Z,101578.66
2022-11-14T00:39:34.411Z,101583.06
2022-11-14T00:42:20.280Z,101575.06
2022-11-14T00:45:06.223Z,101580.28
2022-11-14T00:47:52.064Z,101569.72
2022-11-14T00:50:38.181Z,101582.81
2022-11-14T00:53:24.089Z,101577.63
2022-11-14T00:56:09.806Z,101572.38
2022-11-14T00:58:55.529Z,101582.00
2022-11-14T01:01:41.384Z,101576.63
2022-11-14T01:04:28.082Z,101579.38
2022-11-14T01:07:13.834Z,101575.84
2022-11-14T01:10:00.078Z,101581.03
2022-11-14T01:12:45.889Z,101578.34
2022-11-14T01:15:31.685Z,101579.34
2022-11-14T01:18:18.909Z,101580.91
2022-11-14T01:21:10.792Z,101573.25
2022-11-14T01:23:56.945Z,101573.25
2022-11-14T01:26:42.849Z,101566.28
2022-11-14T01:29:28.769Z,101565.31
2022-11-14T01:32:15.046Z,101566.22
2022-11-14T01:35:00.818Z,101559.38
2022-11-14T01:37:46.425Z,101557.28
2022-11-14T01:40:34.346Z,101556.44
2022-11-14T01:43:20.258Z,101554.72
2022-11-14T01:46:29.598Z,101546.06
2022-11-14T01:49:20.868Z,101539.94
2022-11-14T01:52:08.840Z,101543.53
2022-11-14T01:55:00.207Z,101541.84
2022-11-14T01:57:48.232Z,101540.97
2022-11-14T02:00:34.434Z,101533.84
2022-11-14T02:03:21.187Z,101531.97
2022-11-14T02:06:10.765Z,101531.91
2022-11-14T02:09:00.078Z,101532.88
2022-11-14T02:11:46.483Z,101532.84
2022-11-14T02:14:34.433Z,101533.75
2022-11-14T02:17:29.981Z,101530.38
2022-11-14T02:20:28.728Z,101532.13
2022-11-14T02:23:16.042Z,101528.50
2022-11-14T02:26:01.978Z,101525.88
2022-11-14T02:28:48.614Z,101529.41
2022-11-14T02:31:34.665Z,101525.81
2022-11-14T02:34:21.045Z,101531.06
2022-11-14T02:37:07.701Z,101527.63
2022-11-14T02:39:53.838Z,101528.53
2022-11-14T02:42:40.159Z,101532.16
2022-11-14T02:45:26.034Z,101534.84
2022-11-14T02:48:12.063Z,101530.44
2022-11-14T02:50:58.108Z,101535.59
2022-11-14T02:53:43.830Z,101540.91
2022-11-14T02:56:29.895Z,101538.38
2022-11-14T02:59:16.376Z,101540.09
2022-11-14T03:02:02.558Z,101541.00
2022-11-14T03:04:48.759Z,101539.19
2022-11-14T03:07:35.049Z,101540.13
2022-11-14T03:10:21.622Z,101536.56
2022-11-14T03:13:07.625Z,101540.94
2022-11-14T03:15:53.432Z,101534.78
2022-11-14T03:18:39.687Z,101525.28
2022-11-14T03:21:25.747Z,101527.06
2022-11-14T03:24:11.571Z,101533.97
2022-11-14T03:26:57.265Z,101539.31
2022-11-14T03:29:43.018Z,101540.22
2022-11-14T03:32:29.187Z,101540.19
2022-11-14T03:35:14.982Z,101529.63
2022-11-14T03:38:00.752Z,101526.19
2022-11-14T03:40:46.596Z,101533.25
2022-11-14T03:43:34.536Z,101532.31
2022-11-14T03:46:21.039Z,101534.97
2022-11-14T03:49:07.373Z,101527.00
2022-11-14T03:51:53.376Z,101517.34
2022-11-14T03:54:39.370Z,101516.44
2022-11-14T03:57:25.444Z,101519.06
2022-11-14T04:00:11.806Z,101519.06
2022-11-14T04:02:58.369Z,101507.63
2022-11-14T04:05:45.600Z,101514.59
2022-11-14T04:08:33.226Z,101512.88
2022-11-14T04:11:19.958Z,101509.44
2022-11-14T04:14:05.978Z,101505.88
2022-11-14T04:16:52.101Z,101516.44
2022-11-14T04:19:37.909Z,101515.59
2022-11-14T04:22:23.813Z,101520.00
2022-11-14T04:25:10.325Z,101519.94
2022-11-14T04:27:56.318Z,101526.13
2022-11-14T04:30:42.324Z,101517.34
2022-11-14T04:33:28.449Z,101524.41
2022-11-14T04:36:14.411Z,101523.50
2022-11-14T04:39:01.084Z,101527.91
2022-11-14T04:41:47.340Z,101525.25
2022-11-14T04:44:33.237Z,101519.91
2022-11-14T04:47:19.450Z,101510.28
2022-11-14T04:50:05.613Z,101511.22
2022-11-14T04:52:53.752Z,101509.41
2022-11-14T04:55:39.753Z,101506.78
2022-11-14T04:58:26.788Z,101511.25
2022-11-14T05:01:14.110Z,101520.03
2022-11-14T05:04:00.327Z,101509.47
2022-11-14T05:06:46.576Z,101510.41
2022-11-14T05:09:32.648Z,101510.41
2022-11-14T05:12:18.312Z,101502.53
2022-11-14T05:15:04.433Z,101498.97
2022-11-14T05:17:50.555Z,101508.66
2022-11-14T05:20:36.315Z,101503.38
2022-11-14T05:23:23.890Z,101502.50
2022-11-14T05:26:12.239Z,101504.22
2022-11-14T05:28:58.043Z,101505.97
2022-11-14T05:31:44.280Z,101502.44
2022-11-14T05:34:29.873Z,101496.28
2022-11-14T05:37:15.799Z,101499.78
2022-11-14T05:40:02.925Z,101495.34
2022-11-14T05:42:48.716Z,101499.63
2022-11-14T05:45:34.350Z,101497.00
2022-11-14T05:48:20.047Z,101505.72
2022-11-14T05:51:07.665Z,101500.34
2022-11-14T05:53:53.827Z,101504.53
2022-11-14T05:56:39.586Z,101510.50
2022-11-14T05:59:25.369Z,101518.56
2022-11-14T06:02:59.396Z,101512.53
2022-11-14T06:05:58.223Z,101510.06
2022-11-14T06:09:09.919Z,101514.47
2022-11-14T06:12:02.520Z,101514.56
2022-11-14T06:15:04.095Z,101534.84
2022-11-14T06:17:55.461Z,101530.38
2022-11-14T06:20:41.780Z,101538.44
2022-11-14T06:23:34.914Z,101536.66
2022-11-14T06:26:25.440Z,101542.69
2022-11-14T06:29:11.550Z,101551.28
2022-11-14T06:32:08.914Z,101550.41
2022-11-14T06:34:55.174Z,101555.84
2022-11-14T06:37:41.297Z,101559.38
2022-11-14T06:40:33.094Z,101554.72
2022-11-14T06:43:19.762Z,101554.78
2022-11-14T06:46:07.454Z,101562.75
2022-11-14T06:49:02.695Z,101567.19
2022-11-14T06:51:48.937Z,101572.41
2022-11-14T06:57:55.261Z,101576.00
2022-11-14T07:00:41.018Z,101572.50
2022-11-14T07:04:02.643Z,101574.31
2022-11-14T07:08:48.266Z,101576.06
2022-11-14T07:11:11.531Z,101563.81
2022-11-14T07:14:03.815Z,101580.59
2022-11-14T07:26:53.896Z,101590.28
2022-11-14T08:06:48.871Z,101574.63
2022-11-14T08:15:13.027Z,101575.59
2022-11-14T08:18:20.225Z,101570.28
2022-11-14T08:21:48.231Z,101569.44
2022-11-14T08:24:45.105Z,101572.91
2022-11-14T08:28:06.495Z,101583.38
2022-11-14T08:36:31.119Z,101570.19
2022-11-14T08:39:26.972Z,101575.34
2022-11-14T08:46:38.401Z,101582.50
2022-11-14T08:51:36.533Z,101586.00
2022-11-14T08:57:09.778Z,101580.56
2022-11-14T08:59:55.982Z,101594.56
2022-11-14T09:02:41.786Z,101586.69
2022-11-14T09:05:27.516Z,101584.97
2022-11-14T09:08:13.330Z,101583.16
2022-11-14T09:11:05.173Z,101589.34
2022-11-14T09:13:52.618Z,101576.13
2022-11-14T09:16:38.819Z,101570.78
2022-11-14T09:19:24.565Z,101582.19
2022-11-14T09:22:10.424Z,101572.47
2022-11-14T09:24:56.370Z,101579.72
2022-11-14T09:27:42.142Z,101586.59
2022-11-14T09:30:28.065Z,101570.81
2022-11-14T09:33:13.720Z,101577.84
2022-11-14T09:36:01.756Z,101570.72
2022-11-14T09:38:47.581Z,101560.13
2022-11-14T09:41:33.326Z,101573.41
2022-11-14T09:44:33.856Z,101576.00
2022-11-14T09:47:26.072Z,101567.13
2022-11-14T09:50:25.606Z,101566.25
2022-11-14T09:53:51.503Z,101565.28
2022-11-14T09:56:37.422Z,101569.56
2022-11-14T09:59:23.172Z,101566.03
2022-11-14T10:02:24.417Z,101563.31
2022-11-14T10:05:33.010Z,101558.53
2022-11-14T10:08:21.689Z,101560.50
2022-11-14T10:11:16.737Z,101563.88
2022-11-14T10:14:30.218Z,101548.88
2022-11-14T10:18:13.578Z,101549.28
2022-11-14T10:21:40.970Z,101534.41
2022-11-14T10:24:56.087Z,101538.88
2022-11-14T10:28:05.420Z,101524.63
2022-11-14T10:31:16.386Z,101516.47
2022-11-14T10:34:28.047Z,101518.97
2022-11-14T10:37:27.992Z,101514.75
2022-11-14T10:40:21.593Z,101509.00
2022-11-14T10:43:36.853Z,101516.19
2022-11-14T10:46:27.377Z,101506.81
2022-11-14T10:49:24.556Z,101507.31
2022-11-14T10:52:16.730Z,101495.19
2022-11-14T10:55:13.604Z,101496.59
2022-11-14T10:57:59.692Z,101491.41
2022-11-14T11:00:46.138Z,101493.94
2022-11-14T11:03:42.594Z,101485.47
2022-11-14T11:06:29.606Z,101480.78
2022-11-14T11:09:45.130Z,101495.78
2022-11-14T11:12:34.864Z,101497.16
2022-11-14T11:15:31.784Z,101482.75
2022-11-14T11:18:35.623Z,101492.25
2022-11-14T11:21:23.491Z,101478.41
2022-11-14T11:24:09.799Z,101476.91
2022-11-14T11:27:22.846Z,101470.16
2022-11-14T11:30:23.231Z,101468.28
2022-11-14T11:33:24.780Z,101475.75
2022-11-14T11:36:22.269Z,101462.72
2022-11-14T11:39:23.340Z,101452.88
2022-11-14T11:42:20.385Z,101446.66
2022-11-14T11:45:17.432Z,101457.09
2022-11-14T11:48:19.662Z,101466.34
2022-11-14T11:51:12.417Z,101455.38
2022-11-14T11:54:09.312Z,101456.25
2022-11-14T11:56:59.569Z,101440.09
2022-11-14T12:00:00.803Z,101445.22
2022-11-14T12:02:50.440Z,101433.53
2022-11-14T12:05:58.513Z,101446.50
2022-11-14T12:08:52.821Z,101440.31
2022-11-14T12:11:44.733Z,101449.03
2022-11-14T12:14:33.043Z,101448.47
2022-11-14T12:17:53.732Z,101443.84
2022-11-14T12:21:15.504Z,101452.84
2022-11-14T12:24:16.617Z,101439.44
2022-11-14T12:27:11.293Z,101438.72
2022-11-14T12:30:18.474Z,101429.13
2022-11-14T12:33:13.040Z,101430.28
2022-11-14T12:36:02.085Z,101429.41
2022-11-14T12:38:52.557Z,101426.59
2022-11-14T12:41:40.522Z,101420.44
2022-11-14T12:44:29.231Z,101426.53
2022-11-14T12:47:19.305Z,101420.59
2022-11-14T12:50:29.940Z,101418.34
2022-11-14T12:53:38.369Z,101424.56
2022-11-14T12:56:26.869Z,101416.06
2022-11-14T12:59:28.415Z,101412.16
2022-11-14T13:02:53.256Z,101416.50
2022-11-14T13:06:18.672Z,101411.22
2022-11-14T13:09:23.047Z,101406.13
2022-11-14T13:12:53.775Z,101414.84
2022-11-14T13:16:13.307Z,101396.13
2022-11-14T13:19:35.470Z,101391.88
2022-11-14T13:22:39.241Z,101388.03
2022-11-14T13:25:27.237Z,101380.88
2022-11-14T13:28:38.076Z,101382.31
2022-11-14T13:31:42.567Z,101375.66
2022-11-14T13:34:53.358Z,101373.91
2022-11-14T13:37:53.164Z,101376.31
2022-11-14T13:40:58.386Z,101378.94
2022-11-14T13:44:09.148Z,101374.22
2022-11-14T13:47:00.812Z,101385.50
2022-11-14T13:50:00.142Z,101370.72
2022-11-14T13:52:48.803Z,101369.00
2022-11-14T13:55:59.922Z,101370.94
2022-11-14T13:59:02.095Z,101364.16
2022-11-14T14:02:12.156Z,101366.03
2022-11-14T14:05:03.775Z,101365.97
2022-11-14T14:08:10.665Z,101359.75
2022-11-14T14:10:59.670Z,101365.88
2022-11-14T14:13:59.664Z,101369.47
2022-11-14T14:16:55.904Z,101362.66
2022-11-14T14:20:06.454Z,101374.25
2022-11-14T14:23:32.052Z,101358.50
2022-11-14T14:26:34.468Z,101361.22
2022-11-14T14:29:26.253Z,101357.56
2022-11-14T14:32:21.218Z,101358.47
2022-11-14T14:35:23.984Z,101355.03
2022-11-14T14:38:12.798Z,101356.03
2022-11-14T14:40:59.053Z,101342.16
2022-11-14T14:43:52.472Z,101344.34
2022-11-14T14:46:38.708Z,101341.94
2022-11-14T14:49:35.107Z,101339.28
2022-11-14T14:52:31.419Z,101343.59
2022-11-14T14:55:35.425Z,101337.44
2022-11-14T14:58:22.737Z,101343.56
2022-11-14T15:01:20.966Z,101339.09
2022-11-14T15:04:15.340Z,101326.06
2022-11-14T15:07:01.717Z,101332.31
2022-11-14T15:10:02.802Z,101330.63
2022-11-14T15:12:49.855Z,101337.75
2022-11-14T15:15:39.504Z,101337.16
2022-11-14T15:18:29.824Z,101346.84
2022-11-14T15:21:27.542Z,101336.44
2022-11-14T15:24:17.854Z,101346.91
2022-11-14T15:27:19.064Z,101342.78
2022-11-14T15:30:21.102Z,101343.78
2022-11-14T15:33:33.875Z,101334.06
2022-11-14T15:36:19.912Z,101332.41
2022-11-14T15:39:24.338Z,101340.34
2022-11-14T15:42:31.798Z,101342.91
2022-11-14T15:45:25.628Z,101336.88
2022-11-14T15:48:15.933Z,101337.88
2022-11-14T15:51:02.990Z,101339.63
2022-11-14T15:53:50.259Z,101333.59
2022-11-14T15:56:39.183Z,101333.56
2022-11-14T15:59:27.687Z,101337.13
2022-11-14T16:02:34.483Z,101336.25
2022-11-14T16:05:28.531Z,101338.91
2022-11-14T16:08:14.739Z,101333.63
2022-11-14T16:11:05.437Z,101333.63
2022-11-14T16:14:03.297Z,101336.25
2022-11-14T16:16:55.840Z,101338.94
2022-11-14T16:19:44.238Z,101346.03
2022-11-14T16:22:31.187Z,101349.53
2022-11-14T16:26:49.935Z,101346.94
2022-11-14T16:29:13.896Z,101352.19
2022-11-14T16:32:00.272Z,101358.38
2022-11-14T16:34:48.943Z,101353.97
2022-11-14T16:37:35.209Z,101343.44
2022-11-14T16:40:23.219Z,101350.47
2022-11-14T16:43:14.120Z,101350.47
2022-11-14T16:46:04.761Z,101360.13
2022-11-14T16:48:57.369Z,101351.34
2022-11-14T16:51:51.251Z,101339.03
2022-11-14T16:54:39.093Z,101346.06
2022-11-14T16:57:37.381Z,101345.16
2022-11-14T17:00:26.420Z,101361.88
2022-11-14T17:03:34.576Z,101353.97
2022-11-14T17:06:26.369Z,101346.94
2022-11-14T17:09:14.890Z,101348.69
2022-11-14T17:12:01.084Z,101347.78
2022-11-14T17:14:48.433Z,101339.00
2022-11-14T17:17:37.783Z,101338.09
2022-11-14T17:20:24.236Z,101343.41
2022-11-14T17:23:11.230Z,101344.22
2022-11-14T17:26:21.371Z,101346.78
2022-11-14T17:29:13.213Z,101356.56
2022-11-14T17:31:59.469Z,101345.09
2022-11-14T17:34:50.940Z,101350.34
2022-11-14T17:37:36.853Z,101345.06
2022-11-14T17:40:22.546Z,101357.34
2022-11-14T17:43:08.749Z,101354.66
2022-11-14T17:45:56.760Z,101347.59
2022-11-14T17:48:43.782Z,101349.44
2022-11-14T17:51:47.504Z,101352.06
2022-11-14T17:54:37.816Z,101354.69
2022-11-14T17:57:24.211Z,101354.69
2022-11-14T18:00:20.732Z,101351.09
2022-11-14T18:03:16.644Z,101350.84
2022-11-14T18:06:15.698Z,101350.91
2022-11-14T18:09:14.352Z,101352.69
2022-11-14T18:12:01.040Z,101343.13
2022-11-14T18:14:46.935Z,101355.97
2022-11-14T18:17:33.123Z,101352.50
2022-11-14T18:20:19.266Z,101354.28
2022-11-14T18:23:11.157Z,101353.34
2022-11-14T18:25:57.426Z,101361.41
2022-11-14T18:28:55.474Z,101360.53
2022-11-14T18:31:52.319Z,101360.38
2022-11-14T18:34:38.804Z,101372.69
2022-11-14T18:37:25.037Z,101363.84
2022-11-14T18:40:16.500Z,101368.41
2022-11-14T18:43:02.777Z,101353.63
2022-11-14T18:45:48.617Z,101360.59
2022-11-14T18:48:36.381Z,101363.19
2022-11-14T18:51:29.727Z,101367.53
2022-11-14T18:54:21.313Z,101358.72
2022-11-14T18:57:07.711Z,101362.97
2022-11-14T18:59:54.272Z,101360.38
2022-11-14T19:02:40.816Z,101344.59
2022-11-14T19:05:26.541Z,101358.75
2022-11-14T19:08:12.406Z,101344.56
2022-11-14T19:11:06.478Z,101339.31
2022-11-14T19:13:55.175Z,101347.09
2022-11-14T19:16:41.854Z,101345.44
2022-11-14T19:19:27.707Z,101352.38
2022-11-14T19:22:13.489Z,101349.03
2022-11-14T19:24:59.737Z,101343.78
2022-11-14T19:27:50.620Z,101342.03
2022-11-14T19:30:36.858Z,101339.34
2022-11-14T19:33:22.642Z,101349.94
2022-11-14T19:36:12.365Z,101348.16
2022-11-14T19:39:00.385Z,101355.22
2022-11-14T19:41:46.658Z,101341.91
2022-11-14T19:44:32.494Z,101348.88
2022-11-14T19:47:18.487Z,101334.41
2022-11-14T19:50:05.276Z,101337.84
2022-11-14T19:52:54.297Z,101334.97
2022-11-14T19:55:54.965Z,101338.75
2022-11-14T19:58:51.636Z,101330.78
2022-11-14T20:01:42.215Z,101346.69
2022-11-14T20:04:36.834Z,101339.66
2022-11-14T20:07:23.942Z,101322.91
2022-11-14T20:10:13.086Z,101327.25
2022-11-14T20:13:01.632Z,101329.94
2022-11-14T20:15:48.341Z,101332.41
2022-11-14T20:18:39.455Z,101322.78
2022-11-14T20:21:27.365Z,101332.63
2022-11-14T20:24:17.640Z,101338.78
2022-11-14T20:27:04.113Z,101330.94
2022-11-14T20:29:51.073Z,101341.16
2022-11-14T20:32:39.474Z,101338.38
2022-11-14T20:44:42.761Z,101355.84
2022-11-14T20:47:34.714Z,101360.09
2022-11-14T20:50:21.469Z,101341.75
2022-11-14T20:53:11.359Z,101347.13
2022-11-14T20:55:57.688Z,101335.59
2022-11-14T20:58:48.793Z,101339.78
2022-11-14T21:01:40.463Z,101345.09
2022-11-14T21:04:29.961Z,101342.66
2022-11-14T21:07:16.167Z,101348.97
2022-11-14T21:10:20.990Z,101337.47
2022-11-14T21:13:28.455Z,101329.66
2022-11-14T21:16:19.255Z,101347.09
2022-11-14T21:19:06.425Z,101340.91
2022-11-14T21:21:53.822Z,101335.75
2022-11-14T21:24:39.972Z,101336.59
2022-11-14T21:27:26.277Z,101333.06
2022-11-14T21:30:12.897Z,101322.63
2022-11-14T21:32:59.195Z,101330.34
2022-11-14T21:35:45.476Z,101321.50
2022-11-14T21:38:31.922Z,101315.34
2022-11-14T21:41:19.023Z,101318.94
2022-11-14T21:44:05.240Z,101308.91
2022-11-14T21:46:51.214Z,101301.16
2022-11-14T21:49:37.321Z,101295.66
2022-11-14T21:52:23.110Z,101304.56
2022-11-14T21:55:09.616Z,101288.84
2022-11-14T21:57:55.803Z,101300.25
2022-11-14T22:00:42.272Z,101285.34
2022-11-14T22:03:49.513Z,101279.97
2022-11-14T22:06:35.547Z,101266.91
2022-11-14T22:09:22.223Z,101274.19
2022-11-14T22:12:08.520Z,101269.16
2022-11-14T22:14:54.343Z,101269.28
2022-11-14T22:17:40.791Z,101263.09
2022-11-14T22:20:26.599Z,101262.34
2022-11-14T22:23:12.940Z,101253.53
2022-11-14T22:26:00.611Z,101260.00
2022-11-14T22:28:47.020Z,101253.81
2022-11-14T22:31:33.618Z,101253.88
2022-11-14T22:34:19.897Z,101249.06
2022-11-14T22:37:05.877Z,101249.91
2022-11-14T22:39:52.017Z,101262.84
2022-11-14T22:42:37.879Z,101259.00
2022-11-14T22:45:23.815Z,101252.13
2022-11-14T22:48:09.684Z,101256.72
2022-11-14T22:51:05.985Z,101256.72
2022-11-14T22:53:57.426Z,101247.19
2022-11-14T22:56:43.426Z,101245.56
2022-11-14T22:59:29.254Z,101238.91
2022-11-14T23:02:15.888Z,101233.50
2022-11-14T23:05:02.198Z,101246.28
2022-11-14T23:07:48.541Z,101241.69
2022-11-14T23:10:34.385Z,101243.81
2022-11-14T23:13:20.425Z,101242.28
2022-11-14T23:16:15.432Z,101241.53
2022-11-14T23:19:03.930Z,101226.94
2022-11-14T23:21:50.010Z,101217.25
2022-11-14T23:24:36.001Z,101217.50
2022-11-14T23:27:21.666Z,101213.34
2022-11-14T23:30:07.802Z,101205.41
2022-11-14T23:32:54.129Z,101185.44
2022-11-14T23:35:41.362Z,101193.47
2022-11-14T23:38:30.580Z,101191.34
2022-11-14T23:41:18.919Z,101188.78
2022-11-14T23:44:05.182Z,101195.22
2022-11-14T23:46:51.231Z,101180.97
2022-11-14T23:49:37.368Z,101192.31
2022-11-14T23:52:23.203Z,101205.34
2022-11-14T23:55:08.993Z,101196.09
2022-11-14T23:57:54.964Z,101199.41
